createdAt,value
2023-01-25T00:01:51.102Z,99015.81
2023-01-25T00:04:20.219Z,99014.09
2023-01-25T00:06:49.523Z,99006.28
2023-01-25T00:09:18.526Z,99003.69
2023-01-25T00:11:46.815Z,99007.19
2023-01-25T00:14:16.982Z,99005.50
2023-01-25T00:16:45.279Z,99009.00
2023-01-25T00:19:13.448Z,99015.16
2023-01-25T00:21:41.600Z,99007.28
2023-01-25T00:24:11.709Z,99009.03
2023-01-25T00:26:40.423Z,99001.25
2023-01-25T00:29:12.715Z,99020.38
2023-01-25T00:31:55.690Z,99011.66
2023-01-25T00:34:45.165Z,99008.13
2023-01-25T00:37:19.850Z,99004.63
2023-01-25T00:39:48.195Z,99005.50
2023-01-25T00:42:19.494Z,99010.75
2023-01-25T00:44:47.967Z,99006.38
2023-01-25T00:47:17.802Z,99009.00
2023-01-25T00:49:47.015Z,99005.56
2023-01-25T00:52:15.785Z,99005.59
2023-01-25T00:54:44.016Z,99020.41
2023-01-25T00:57:12.165Z,99019.59
2023-01-25T00:59:44.450Z,99019.59
2023-01-25T01:02:13.838Z,99018.72
2023-01-25T01:04:43.417Z,99012.69
2023-01-25T01:07:13.905Z,99027.53
2023-01-25T01:09:42.329Z,99024.06
2023-01-25T01:12:10.848Z,99026.69
2023-01-25T01:14:39.060Z,99018.88
2023-01-25T01:17:07.217Z,99022.41
2023-01-25T01:19:35.451Z,99021.56
2023-01-25T01:22:05.018Z,99005.91
2023-01-25T01:24:33.389Z,99023.34
2023-01-25T01:27:01.497Z,99029.41
2023-01-25T01:29:29.565Z,99028.53
2023-01-25T01:31:57.885Z,99023.28
2023-01-25T01:34:27.639Z,99027.63
2023-01-25T01:36:56.356Z,99021.53
2023-01-25T01:39:26.497Z,99030.25
2023-01-25T01:41:54.710Z,99038.94
2023-01-25T01:44:47.811Z,99024.13
2023-01-25T01:47:21.112Z,99031.97
2023-01-25T01:49:54.878Z,99034.56
2023-01-25T01:52:29.801Z,99035.44
2023-01-25T01:55:04.635Z,99034.56
2023-01-25T01:57:36.731Z,99032.78
2023-01-25T02:00:09.959Z,99040.63
2023-01-25T02:02:41.612Z,99038.91
2023-01-25T02:05:15.839Z,99021.47
2023-01-25T02:07:48.158Z,99032.84
2023-01-25T02:10:19.547Z,99031.06
2023-01-25T02:12:49.495Z,99022.34
2023-01-25T02:15:17.665Z,99024.91
2023-01-25T02:17:46.188Z,99017.97
2023-01-25T02:20:24.174Z,99014.47
2023-01-25T02:22:58.039Z,99015.38
2023-01-25T02:25:28.272Z,99020.56
2023-01-25T02:28:02.346Z,99011.00
2023-01-25T02:30:30.526Z,99017.06
2023-01-25T02:32:58.773Z,99007.47
2023-01-25T02:35:39.277Z,99009.22
2023-01-25T02:38:08.807Z,99004.00
2023-01-25T02:40:46.615Z,99012.66
2023-01-25T02:43:16.305Z,99000.47
2023-01-25T02:45:47.565Z,98999.63
2023-01-25T02:48:15.698Z,98997.88
2023-01-25T02:50:43.828Z,98990.09
2023-01-25T02:53:13.232Z,98997.94
2023-01-25T02:55:42.789Z,98987.47
2023-01-25T02:58:11.067Z,98989.22
2023-01-25T03:00:39.345Z,98990.09
2023-01-25T03:03:07.425Z,98981.41
2023-01-25T03:05:35.752Z,98974.44
2023-01-25T03:08:03.932Z,98973.63
2023-01-25T03:10:32.315Z,98974.44
2023-01-25T03:13:02.051Z,98974.44
2023-01-25T03:15:30.234Z,98975.31
2023-01-25T03:17:58.965Z,98968.34
2023-01-25T03:20:27.067Z,98971.84
2023-01-25T03:22:56.474Z,98968.38
2023-01-25T03:25:24.599Z,98962.28
2023-01-25T03:28:12.602Z,98964.03
2023-01-25T03:30:40.996Z,98964.94
2023-01-25T03:33:09.414Z,98964.06
2023-01-25T03:35:37.885Z,98964.94
2023-01-25T03:38:06.728Z,98944.94
2023-01-25T03:40:35.437Z,98960.59
2023-01-25T03:43:03.679Z,98954.50
2023-01-25T03:45:33.245Z,98956.22
2023-01-25T03:48:06.020Z,98950.97
2023-01-25T03:50:34.738Z,98949.25
2023-01-25T03:53:08.179Z,98950.09
2023-01-25T03:55:37.127Z,98950.09
2023-01-25T03:58:05.619Z,98946.59
2023-01-25T04:00:36.984Z,98949.22
2023-01-25T04:03:05.215Z,98952.66
2023-01-25T04:05:34.556Z,98949.19
2023-01-25T04:08:03.129Z,98941.34
2023-01-25T04:10:39.405Z,98934.38
2023-01-25T04:13:08.664Z,98941.34
2023-01-25T04:15:38.551Z,98933.53
2023-01-25T04:18:15.106Z,98936.16
2023-01-25T04:20:43.447Z,98928.31
2023-01-25T04:23:12.719Z,98929.19
2023-01-25T04:25:41.216Z,98928.34
2023-01-25T04:28:13.452Z,98920.50
2023-01-25T04:30:43.035Z,98927.44
2023-01-25T04:33:12.017Z,98926.66
2023-01-25T04:35:40.952Z,98917.13
2023-01-25T04:38:11.644Z,98912.78
2023-01-25T04:40:43.632Z,98931.13
2023-01-25T04:43:14.301Z,98929.38
2023-01-25T04:45:44.261Z,98929.41
2023-01-25T04:48:20.569Z,98926.78
2023-01-25T04:50:54.681Z,98915.47
2023-01-25T04:53:24.230Z,98932.84
2023-01-25T04:55:53.302Z,98936.31
2023-01-25T04:58:22.010Z,98932.81
2023-01-25T05:00:54.196Z,98938.88
2023-01-25T05:03:23.577Z,98940.63
2023-01-25T05:05:51.732Z,98929.31
2023-01-25T05:08:24.204Z,98937.97
2023-01-25T05:10:54.499Z,98938.81
2023-01-25T05:13:28.718Z,98929.25
2023-01-25T05:16:19.477Z,98931.88
2023-01-25T05:18:49.334Z,98924.91
2023-01-25T05:21:46.579Z,98931.88
2023-01-25T05:24:15.345Z,98933.63
2023-01-25T05:27:03.618Z,98929.22
2023-01-25T05:29:50.752Z,98930.09
2023-01-25T05:32:22.475Z,98927.47
2023-01-25T05:34:51.374Z,98927.47
2023-01-25T05:37:22.252Z,98930.97
2023-01-25T05:39:57.670Z,98925.72
2023-01-25T05:42:26.446Z,98925.72
2023-01-25T05:44:55.379Z,98930.94
2023-01-25T05:47:26.003Z,98935.28
2023-01-25T05:49:56.711Z,98942.25
2023-01-25T05:52:47.232Z,98943.16
2023-01-25T05:55:16.055Z,98943.16
2023-01-25T05:57:45.260Z,98942.28
2023-01-25T06:00:14.340Z,98944.03
2023-01-25T06:02:44.455Z,98939.69
2023-01-25T06:05:17.787Z,98950.97
2023-01-25T06:07:45.938Z,98948.38
2023-01-25T06:10:15.095Z,98959.72
2023-01-25T06:12:43.992Z,98957.09
2023-01-25T06:15:12.452Z,98963.19
2023-01-25T06:17:41.202Z,98963.22
2023-01-25T06:20:12.207Z,98969.38
2023-01-25T06:22:57.187Z,98977.16
2023-01-25T06:25:25.274Z,98977.16
2023-01-25T06:27:56.098Z,98969.34
2023-01-25T06:30:24.216Z,98971.91
2023-01-25T06:32:52.316Z,98973.66
2023-01-25T06:35:21.892Z,98965.78
2023-01-25T06:37:49.979Z,98969.25
2023-01-25T06:40:18.493Z,98974.47
2023-01-25T06:42:46.677Z,98976.19
2023-01-25T06:45:14.996Z,98968.34
2023-01-25T06:47:43.332Z,98982.28
2023-01-25T06:50:11.870Z,98983.16
2023-01-25T06:52:41.367Z,98981.41
2023-01-25T06:55:13.958Z,98978.75
2023-01-25T06:57:42.177Z,98988.34
2023-01-25T07:00:11.584Z,98981.38
2023-01-25T07:02:39.940Z,98973.56
2023-01-25T07:05:09.289Z,98976.22
2023-01-25T07:07:37.617Z,98972.63
2023-01-25T07:10:08.195Z,98973.50
2023-01-25T07:12:37.045Z,98970.88
2023-01-25T07:15:05.757Z,98962.16
2023-01-25T07:17:33.875Z,98968.25
2023-01-25T07:20:02.011Z,98971.78
2023-01-25T07:22:30.147Z,98963.06
2023-01-25T07:24:59.105Z,98944.81
2023-01-25T07:27:28.791Z,98949.09
2023-01-25T07:29:56.937Z,98945.59
2023-01-25T07:32:25.082Z,98940.38
2023-01-25T07:34:53.208Z,98938.56
2023-01-25T07:37:21.384Z,98936.00
2023-01-25T07:39:50.696Z,98939.44
2023-01-25T07:42:18.836Z,98933.28
2023-01-25T07:44:55.351Z,98928.94
2023-01-25T07:47:23.537Z,98922.78
2023-01-25T07:49:51.655Z,98930.63
2023-01-25T07:52:19.745Z,98928.94
2023-01-25T07:54:49.802Z,98928.94
2023-01-25T07:57:17.948Z,98933.22
2023-01-25T07:59:46.016Z,98925.41
2023-01-25T08:02:15.539Z,98933.19
2023-01-25T08:04:45.578Z,98932.22
2023-01-25T08:07:14.153Z,98930.31
2023-01-25T08:09:42.971Z,98932.00
2023-01-25T08:12:11.407Z,98936.47
2023-01-25T08:14:39.537Z,98939.03
2023-01-25T08:17:07.954Z,98937.34
2023-01-25T08:19:37.521Z,98937.34
2023-01-25T08:22:08.286Z,98928.56
2023-01-25T08:24:36.520Z,98931.03
2023-01-25T08:27:04.798Z,98931.19
2023-01-25T08:29:32.950Z,98938.06
2023-01-25T08:32:04.428Z,98935.41
2023-01-25T08:34:33.504Z,98926.63
2023-01-25T08:37:03.058Z,98939.78
2023-01-25T08:39:31.443Z,98951.16
2023-01-25T08:42:00.113Z,98946.81
2023-01-25T08:44:28.276Z,98942.47
2023-01-25T08:46:56.390Z,98938.19
2023-01-25T08:49:24.630Z,98937.22
2023-01-25T08:51:53.031Z,98941.59
2023-01-25T08:54:22.680Z,98934.59
2023-01-25T08:56:50.797Z,98934.47
2023-01-25T08:59:18.902Z,98939.56
2023-01-25T09:01:47.020Z,98933.53
2023-01-25T09:04:15.205Z,98928.97
2023-01-25T09:06:43.512Z,98929.84
2023-01-25T09:09:13.049Z,98929.69
2023-01-25T09:11:42.596Z,98931.19
2023-01-25T09:14:10.745Z,98925.81
2023-01-25T09:16:38.892Z,98923.41
2023-01-25T09:19:07.603Z,98921.25
2023-01-25T09:21:37.233Z,98915.81
2023-01-25T09:24:07.578Z,98916.38
2023-01-25T09:26:38.493Z,98929.78
2023-01-25T09:29:08.918Z,98903.66
2023-01-25T09:31:40.571Z,98913.88
2023-01-25T09:34:27.451Z,98913.75
2023-01-25T09:36:55.618Z,98911.97
2023-01-25T09:39:23.716Z,98914.66
2023-01-25T09:42:23.584Z,98905.97
2023-01-25T09:45:20.562Z,98897.47
2023-01-25T09:47:55.922Z,98901.06
2023-01-25T09:50:34.528Z,98895.69
2023-01-25T09:53:37.989Z,98897.47
2023-01-25T09:56:13.554Z,98895.63
2023-01-25T09:58:47.245Z,98893.13
2023-01-25T10:01:38.757Z,98881.75
2023-01-25T10:04:15.951Z,98893.75
2023-01-25T10:06:59.815Z,98882.53
2023-01-25T10:09:38.647Z,98879.75
2023-01-25T10:12:15.502Z,98869.97
2023-01-25T10:14:43.731Z,98869.25
2023-01-25T10:17:18.571Z,98863.00
2023-01-25T10:19:59.033Z,98867.41
2023-01-25T10:22:30.875Z,98863.06
2023-01-25T10:25:13.927Z,98851.81
2023-01-25T10:27:50.803Z,98845.97
2023-01-25T10:30:28.097Z,98844.41
2023-01-25T10:33:00.928Z,98838.34
2023-01-25T10:35:38.897Z,98840.13
2023-01-25T10:38:16.180Z,98827.13
2023-01-25T10:40:47.648Z,98834.94
2023-01-25T10:43:19.421Z,98834.09
2023-01-25T10:45:48.267Z,98830.63
2023-01-25T10:48:21.907Z,98820.22
2023-01-25T10:50:53.373Z,98828.00
2023-01-25T10:53:30.542Z,98822.75
2023-01-25T10:56:07.486Z,98821.03
2023-01-25T10:58:38.502Z,98818.25
2023-01-25T11:01:09.426Z,98811.16
2023-01-25T11:03:40.897Z,98804.09
2023-01-25T11:06:10.573Z,98793.56
2023-01-25T11:08:40.586Z,98790.06
2023-01-25T11:11:25.674Z,98791.06
2023-01-25T11:13:56.114Z,98789.31
2023-01-25T11:16:31.573Z,98788.38
2023-01-25T11:19:02.889Z,98789.34
2023-01-25T11:21:33.375Z,98781.47
2023-01-25T11:24:18.086Z,98773.56
2023-01-25T11:26:46.772Z,98772.84
2023-01-25T11:29:17.870Z,98769.41
2023-01-25T11:31:50.361Z,98772.00
2023-01-25T11:34:22.354Z,98759.84
2023-01-25T11:37:06.780Z,98753.69
2023-01-25T11:39:46.735Z,98743.13
2023-01-25T11:42:28.844Z,98745.75
2023-01-25T11:45:23.220Z,98736.22
2023-01-25T11:48:06.382Z,98737.03
2023-01-25T11:50:42.779Z,98731.84
2023-01-25T11:53:29.728Z,98727.47
2023-01-25T11:56:03.376Z,98718.66
2023-01-25T11:58:42.291Z,98715.19
2023-01-25T12:01:20.229Z,98712.56
2023-01-25T12:04:26.103Z,98714.19
2023-01-25T12:07:00.721Z,98709.06
2023-01-25T12:09:43.555Z,98703.91
2023-01-25T12:12:19.761Z,98702.06
2023-01-25T12:15:07.384Z,98702.16
2023-01-25T12:17:51.268Z,98696.09
2023-01-25T12:20:40.588Z,98697.81
2023-01-25T12:23:36.003Z,98699.53
2023-01-25T12:26:17.104Z,98682.97
2023-01-25T12:28:49.949Z,98682.13
2023-01-25T12:31:21.613Z,98674.31
2023-01-25T12:33:57.231Z,98662.00
2023-01-25T12:36:29.888Z,98664.84
2023-01-25T12:39:03.940Z,98661.41
2023-01-25T12:41:40.691Z,98659.59
2023-01-25T12:44:15.562Z,98653.47
2023-01-25T12:46:49.172Z,98650.69
2023-01-25T12:49:25.115Z,98653.34
2023-01-25T12:51:54.975Z,98644.66
2023-01-25T12:54:33.614Z,98641.03
2023-01-25T12:57:14.762Z,98632.22
2023-01-25T12:59:52.231Z,98633.28
2023-01-25T13:02:51.873Z,98623.72
2023-01-25T13:05:28.258Z,98628.81
2023-01-25T13:08:07.243Z,98624.31
2023-01-25T13:10:42.105Z,98619.78
2023-01-25T13:13:22.843Z,98618.00
2023-01-25T13:15:51.378Z,98618.81
2023-01-25T13:18:40.792Z,98623.28
2023-01-25T13:21:33.116Z,98611.88
2023-01-25T13:24:15.593Z,98611.91
2023-01-25T13:27:00.988Z,98612.97
2023-01-25T13:29:56.645Z,98605.84
2023-01-25T13:33:13.064Z,98610.19
2023-01-25T13:35:44.453Z,98605.78
2023-01-25T13:38:29.474Z,98609.47
2023-01-25T13:41:18.679Z,98612.84
2023-01-25T13:43:51.342Z,98609.72
2023-01-25T13:46:24.262Z,98610.81
2023-01-25T13:49:05.994Z,98600.44
2023-01-25T13:51:39.768Z,98600.41
2023-01-25T13:54:07.977Z,98597.78
2023-01-25T13:56:37.544Z,98602.06
2023-01-25T13:59:07.040Z,98600.50
2023-01-25T14:01:37.963Z,98598.03
2023-01-25T14:04:06.897Z,98591.03
2023-01-25T14:06:39.581Z,98592.13
2023-01-25T14:09:16.783Z,98591.28
2023-01-25T14:11:47.612Z,98591.28
2023-01-25T14:14:25.745Z,98587.81
2023-01-25T14:17:16.641Z,98590.50
2023-01-25T14:19:46.222Z,98585.22
2023-01-25T14:22:21.076Z,98585.28
2023-01-25T14:25:07.289Z,98600.13
2023-01-25T14:27:36.103Z,98593.22
2023-01-25T14:30:07.082Z,98598.47
2023-01-25T14:32:37.018Z,98601.94
2023-01-25T14:35:54.814Z,98591.47
2023-01-25T14:38:27.157Z,98581.88
2023-01-25T14:40:58.714Z,98574.06
2023-01-25T14:43:27.318Z,98584.41
2023-01-25T14:45:57.393Z,98585.19
2023-01-25T14:48:36.108Z,98589.59
2023-01-25T14:51:06.749Z,98589.66
2023-01-25T14:53:34.999Z,98600.13
2023-01-25T14:56:04.070Z,98588.00
2023-01-25T14:58:32.388Z,98591.47
2023-01-25T15:01:04.053Z,98588.06
2023-01-25T15:03:33.095Z,98587.25
2023-01-25T15:06:05.599Z,98592.56
2023-01-25T15:08:39.096Z,98590.00
2023-01-25T15:11:46.399Z,98590.00
2023-01-25T15:14:19.044Z,98585.75
2023-01-25T15:16:48.662Z,98590.94
2023-01-25T15:19:28.146Z,98585.72
2023-01-25T15:21:58.247Z,98576.13
2023-01-25T15:24:27.081Z,98577.91
2023-01-25T15:26:56.359Z,98575.28
2023-01-25T15:29:27.267Z,98576.13
2023-01-25T15:31:57.879Z,98576.19
2023-01-25T15:34:32.537Z,98582.34
2023-01-25T15:37:00.630Z,98578.84
2023-01-25T15:39:29.012Z,98579.75
2023-01-25T15:41:57.163Z,98576.31
2023-01-25T15:44:25.369Z,98583.31
2023-01-25T15:46:53.849Z,98585.84
2023-01-25T15:49:27.688Z,98579.72
2023-01-25T15:51:56.284Z,98575.38
2023-01-25T15:54:25.510Z,98573.69
2023-01-25T15:56:57.247Z,98577.19
2023-01-25T15:59:27.462Z,98570.22
2023-01-25T16:01:55.890Z,98572.00
2023-01-25T16:04:26.443Z,98564.09
2023-01-25T16:06:55.710Z,98572.00
2023-01-25T16:09:25.530Z,98567.72
2023-01-25T16:11:55.485Z,98579.06
2023-01-25T16:14:29.116Z,98572.88
2023-01-25T16:17:01.716Z,98574.81
2023-01-25T16:19:31.639Z,98574.91
2023-01-25T16:22:01.109Z,98570.44
2023-01-25T16:24:31.763Z,98575.66
2023-01-25T16:27:00.586Z,98567.94
2023-01-25T16:29:29.687Z,98568.13
2023-01-25T16:31:58.147Z,98568.09
2023-01-25T16:34:26.867Z,98555.94
2023-01-25T16:37:00.333Z,98563.69
2023-01-25T16:39:30.451Z,98566.28
2023-01-25T16:42:00.193Z,98568.06
2023-01-25T16:44:29.045Z,98566.38
2023-01-25T16:46:58.801Z,98558.53
2023-01-25T16:49:30.666Z,98567.25
2023-01-25T16:52:03.499Z,98561.25
2023-01-25T16:54:32.818Z,98557.84
2023-01-25T16:57:08.606Z,98556.09
2023-01-25T16:59:48.286Z,98557.84
2023-01-25T17:02:18.000Z,98558.69
2023-01-25T17:04:46.845Z,98560.41
2023-01-25T17:07:17.039Z,98557.00
2023-01-25T17:09:49.896Z,98561.31
2023-01-25T17:12:19.480Z,98555.25
2023-01-25T17:14:49.185Z,98559.59
2023-01-25T17:17:19.889Z,98558.63
2023-01-25T17:19:51.984Z,98554.25
2023-01-25T17:22:22.781Z,98554.31
2023-01-25T17:24:56.971Z,98549.09
2023-01-25T17:27:26.285Z,98539.66
2023-01-25T17:29:59.027Z,98549.31
2023-01-25T17:32:29.225Z,98541.47
2023-01-25T17:35:01.891Z,98538.88
2023-01-25T17:37:32.993Z,98539.75
2023-01-25T17:40:03.139Z,98538.03
2023-01-25T17:42:35.061Z,98544.00
2023-01-25T17:45:04.701Z,98537.13
2023-01-25T17:47:36.504Z,98529.41
2023-01-25T17:50:09.007Z,98531.13
2023-01-25T17:52:40.882Z,98522.50
2023-01-25T17:55:12.604Z,98528.69
2023-01-25T17:57:42.261Z,98526.97
2023-01-25T18:00:13.066Z,98526.97
2023-01-25T18:02:47.171Z,98517.47
2023-01-25T18:05:17.908Z,98521.78
2023-01-25T18:07:49.635Z,98519.16
2023-01-25T18:10:19.656Z,98524.34
2023-01-25T18:13:04.269Z,98514.75
2023-01-25T18:15:37.771Z,98515.53
2023-01-25T18:18:07.819Z,98511.19
2023-01-25T18:20:39.145Z,98504.28
2023-01-25T18:23:12.875Z,98503.44
2023-01-25T18:25:43.571Z,98497.31
2023-01-25T18:28:16.686Z,98496.50
2023-01-25T18:30:56.041Z,98492.09
2023-01-25T18:33:26.718Z,98494.78
2023-01-25T18:35:57.663Z,98480.00
2023-01-25T18:38:28.226Z,98474.78
2023-01-25T18:41:00.872Z,98480.81
2023-01-25T18:43:37.056Z,98479.06
2023-01-25T18:46:06.955Z,98472.00
2023-01-25T18:48:40.513Z,98475.38
2023-01-25T18:51:14.055Z,98468.44
2023-01-25T18:53:52.331Z,98465.81
2023-01-25T18:56:24.184Z,98464.94
2023-01-25T18:58:54.484Z,98457.97
2023-01-25T19:01:27.913Z,98457.13
2023-01-25T19:03:58.421Z,98446.72
2023-01-25T19:06:29.641Z,98449.25
2023-01-25T19:09:03.615Z,98448.44
2023-01-25T19:11:33.637Z,98445.88
2023-01-25T19:14:04.388Z,98448.47
2023-01-25T19:16:34.233Z,98439.75
2023-01-25T19:19:05.229Z,98441.44
2023-01-25T19:21:36.134Z,98431.91
2023-01-25T19:24:13.461Z,98427.47
2023-01-25T19:26:44.216Z,98428.38
2023-01-25T19:29:17.346Z,98413.63
2023-01-25T19:31:47.144Z,98419.75
2023-01-25T19:34:17.654Z,98410.13
2023-01-25T19:36:51.076Z,98407.56
2023-01-25T19:39:27.300Z,98406.66
2023-01-25T19:42:00.683Z,98401.44
2023-01-25T19:44:30.971Z,98397.97
2023-01-25T19:47:02.178Z,98397.97
2023-01-25T19:49:33.602Z,98399.72
2023-01-25T19:52:03.850Z,98386.66
2023-01-25T19:54:36.139Z,98392.84
2023-01-25T19:57:09.566Z,98391.09
2023-01-25T19:59:39.146Z,98387.59
2023-01-25T20:02:11.800Z,98395.41
2023-01-25T20:04:42.332Z,98389.34
2023-01-25T20:07:15.136Z,98385.84
2023-01-25T20:09:46.965Z,98377.09
2023-01-25T20:12:16.862Z,98371.88
2023-01-25T20:14:50.110Z,98361.50
2023-01-25T20:17:21.918Z,98364.94
2023-01-25T20:19:52.003Z,98359.66
2023-01-25T20:22:25.359Z,98354.44
2023-01-25T20:24:59.395Z,98349.28
2023-01-25T20:27:29.639Z,98355.38
2023-01-25T20:30:01.483Z,98339.69
2023-01-25T20:32:33.503Z,98341.34
2023-01-25T20:35:06.683Z,98343.97
2023-01-25T20:37:37.547Z,98333.59
2023-01-25T20:40:16.188Z,98333.59
2023-01-25T20:42:46.374Z,98324.00
2023-01-25T20:45:17.932Z,98331.84
2023-01-25T20:47:48.749Z,98324.81
2023-01-25T20:50:19.492Z,98320.44
2023-01-25T20:52:49.574Z,98317.81
2023-01-25T20:55:20.901Z,98304.63
2023-01-25T20:57:50.391Z,98302.06
2023-01-25T21:00:19.638Z,98296.91
2023-01-25T21:02:49.632Z,98301.28
2023-01-25T21:05:23.749Z,98297.00
2023-01-25T21:07:55.060Z,98303.91
2023-01-25T21:10:28.452Z,98293.53
2023-01-25T21:12:58.422Z,98296.16
2023-01-25T21:15:30.850Z,98289.13
2023-01-25T21:18:05.056Z,98283.88
2023-01-25T21:20:35.630Z,98287.34
2023-01-25T21:23:05.985Z,98280.50
2023-01-25T21:25:37.542Z,98277.88
2023-01-25T21:28:07.661Z,98277.97
2023-01-25T21:30:38.634Z,98277.91
2023-01-25T21:33:09.368Z,98260.47
2023-01-25T21:35:38.550Z,98270.03
2023-01-25T21:38:08.472Z,98270.03
2023-01-25T21:40:38.779Z,98256.97
2023-01-25T21:43:08.266Z,98254.38
2023-01-25T21:45:58.820Z,98250.88
2023-01-25T21:48:46.045Z,98256.97
2023-01-25T21:51:32.869Z,98248.25
2023-01-25T21:54:01.925Z,98240.47
2023-01-25T21:56:31.880Z,98246.53
2023-01-25T21:59:00.733Z,98243.06
2023-01-25T22:01:29.220Z,98234.34
2023-01-25T22:03:57.420Z,98230.97
2023-01-25T22:06:25.658Z,98240.56
2023-01-25T22:08:53.949Z,98227.50
2023-01-25T22:11:22.192Z,98229.22
2023-01-25T22:13:51.754Z,98229.25
2023-01-25T22:16:21.429Z,98213.56
2023-01-25T22:18:50.784Z,98213.53
2023-01-25T22:21:21.358Z,98211.72
2023-01-25T22:23:49.913Z,98210.06
2023-01-25T22:26:19.776Z,98209.25
2023-01-25T22:28:49.923Z,98208.38
2023-01-25T22:31:22.273Z,98205.78
2023-01-25T22:33:51.067Z,98205.75
2023-01-25T22:36:20.815Z,98203.16
2023-01-25T22:38:49.168Z,98196.25
2023-01-25T22:41:19.010Z,98196.16
2023-01-25T22:43:47.624Z,98187.28
2023-01-25T22:46:17.752Z,98186.84
2023-01-25T22:48:47.864Z,98178.50
2023-01-25T22:51:17.264Z,98173.41
2023-01-25T22:53:45.790Z,98165.78
2023-01-25T22:56:15.638Z,98167.59
2023-01-25T22:58:45.437Z,98163.38
2023-01-25T23:01:14.920Z,98152.91
2023-01-25T23:03:43.569Z,98156.38
2023-01-25T23:06:15.386Z,98142.47
2023-01-25T23:08:44.225Z,98137.19
2023-01-25T23:11:14.013Z,98133.78
2023-01-25T23:13:42.557Z,98142.56
2023-01-25T23:16:11.674Z,98137.34
2023-01-25T23:18:50.817Z,98142.53
2023-01-25T23:21:22.967Z,98139.13
2023-01-25T23:23:52.626Z,98130.38
2023-01-25T23:26:20.800Z,98134.84
2023-01-25T23:28:51.285Z,98140.94
2023-01-25T23:31:21.800Z,98139.13
2023-01-25T23:33:51.642Z,98139.16
2023-01-25T23:36:23.161Z,98140.88
2023-01-25T23:38:51.978Z,98127.78
2023-01-25T23:41:21.892Z,98126.03
2023-01-25T23:43:50.436Z,98119.94
2023-01-25T23:46:18.986Z,98121.53
2023-01-25T23:48:47.711Z,98105.97
2023-01-25T23:51:17.131Z,98104.31
2023-01-25T23:53:46.776Z,98104.31
2023-01-25T23:56:17.020Z,98101.78
2023-01-25T23:58:45.702Z,98098.28
